Terminal Aerodrome Forecast
Issued by NWS

Home | Current Version | Previous Version | Text Only | Print | Product List | Glossary On
Versions: 1 2 3 4 5 6 7 8 9 10 11 12 13 14
083
FTUS43 KSGF 241933 AAB
TAFBBG
TAF AMD
KBBG 241933Z 2420/2518 16006KT P6SM VCTS SCT045CB BKN070
      TEMPO 2420/2424 -TSRA
     FM250000 VRB03KT P6SM FEW045=

USA.gov is the U.S. government's official web portal to all federal, state and local government web resources and services.